Terminal Aerodrome Forecast
Issued by NWS Albuquerque, NM

Home | Current Version | Previous Version | Text Only | Print | Product List | Glossary On
Versions: 1 2 3 4 5 6 7 8 9 10 11 12 13 14
000
FTUS45 KABQ 231120
TAFABQ
TAF
KABQ 231120Z 2312/2412 35007KT P6SM FEW250
     FM231600 32007KT P6SM FEW250
     FM232000 34012G18KT P6SM FEW250
     FM240200 03012KT P6SM SCT250
     FM240500 08020G30KT P6SM SCT250=

USA.gov is the U.S. government's official web portal to all federal, state and local government web resources and services.